^^
Datos históricos de la estación: Murcia-Puente Tocinos
Diario Informe para Febrero 24, 2019 Unidades:  Métrico    Inglés   Ambas
Diario Semanal Mensual Anual Configurable
  Máximo: Mínimo: Media:
Temperatura: 18.5 °C 7.1 °C 12.8 °C
Punto de rocio: 9.9 °C 1.1 °C 5.5 °C
Humedad: 82% 38% 62%
Velocidad viento: 13.7km/h 0.0km/h 6km/h
Racha viento: 27.8km/h - -
Viento- - SE
Presión: 1032.0 hPa 1025.5 hPa -
Precipitación: 0.0 mm    
Historical Graphs
 
 
Tabla de datos para Febrero 24, 2019
Hora Temperatura Punto de rocio Presión Viento Velocidad viento Racha viento Humedad Intensidad lluvia(por hora) Nubes
00:00 12.6 °C 3.3 °C 1025.5 hPa SW 3.2 km/h 6.4 km/h 53% 0.0 mm CLR
00:05 12.5 °C 3.2 °C 1025.7 hPa SW 3.2 km/h 3.7 km/h 53% 0.0 mm CLR
00:10 12.4 °C 3.1 °C 1025.7 hPa SW 2.9 km/h   53% 0.0 mm CLR
00:15 12.4 °C 3.6 °C 1025.7 hPa SW 2.9 km/h 7.4 km/h 55% 0.0 mm CLR
00:20 12.2 °C 3.7 °C 1025.8 hPa SW 2.3 km/h 5.6 km/h 56% 0.0 mm CLR
00:25 11.9 °C 4.4 °C 1025.8 hPa SW 2.3 km/h 5.6 km/h 60% 0.0 mm CLR
00:30 11.7 °C 4.9 °C 1025.8 hPa SW 3.2 km/h 5.6 km/h 63% 0.0 mm CLR
00:35 11.6 °C 4.8 °C 1025.8 hPa SW 3.2 km/h 5.6 km/h 63% 0.0 mm CLR
00:40 11.6 °C 5.0 °C 1025.8 hPa SW 3.2 km/h 5.6 km/h 64% 0.0 mm CLR
00:45 11.4 °C 4.6 °C 1025.8 hPa SW 3.2 km/h 3.7 km/h 63% 0.0 mm CLR
00:50 11.5 °C 4.7 °C 1025.9 hPa SW 3.2 km/h   63% 0.0 mm CLR
00:55 11.6 °C 4.8 °C 1025.9 hPa SW 3.2 km/h   63% 0.0 mm CLR
01:00 11.6 °C 4.3 °C 1025.9 hPa Calm   8.0 km/h 61% 0.0 mm CLR
01:05 11.5 °C 3.8 °C 1026.1 hPa Calm   7.4 km/h 59% 0.0 mm CLR
01:10 11.4 °C 3.4 °C 1026.1 hPa South 4.7 km/h 7.4 km/h 58% 0.0 mm CLR
01:15 11.3 °C 3.3 °C 1026.1 hPa South 4.7 km/h 7.4 km/h 58% 0.0 mm CLR
01:20 11.3 °C 3.3 °C 1026.1 hPa South 5.8 km/h 7.6 km/h 58% 0.0 mm CLR
01:25 11.2 °C 3.2 °C 1026.1 hPa South 5.8 km/h 9.3 km/h 58% 0.0 mm CLR
01:30 11.2 °C 3.2 °C 1026.1 hPa South 5.8 km/h 7.4 km/h 58% 0.0 mm CLR
01:35 11.2 °C 3.0 °C 1026.2 hPa South 5.8 km/h 9.3 km/h 57% 0.0 mm CLR
01:40 11.2 °C 3.0 °C 1026.2 hPa South 6.4 km/h 9.3 km/h 57% 0.0 mm CLR
01:45 11.2 °C 3.0 °C 1026.2 hPa South 6.4 km/h 7.4 km/h 57% 0.0 mm CLR
01:50 11.2 °C 3.0 °C 1026.3 hPa South 5.8 km/h 7.4 km/h 57% 0.0 mm CLR
01:55 11.1 °C 2.9 °C 1026.3 hPa SSE 5.8 km/h 7.4 km/h 57% 0.0 mm CLR
02:00 11.1 °C 2.9 °C 1026.3 hPa SSE 4.8 km/h 9.7 km/h 57% 0.0 mm CLR
02:05 10.9 °C 2.7 °C 1026.5 hPa SSE 5.0 km/h 6.4 km/h 57% 0.0 mm CLR
02:10 10.8 °C 2.8 °C 1026.5 hPa SSE 4.7 km/h 7.4 km/h 58% 0.0 mm CLR
02:15 10.7 °C 2.8 °C 1026.5 hPa South 4.7 km/h 11.1 km/h 58% 0.0 mm CLR
02:20 10.7 °C 2.8 °C 1026.5 hPa South 6.4 km/h 9.3 km/h 58% 0.0 mm CLR
02:25 10.7 °C 2.8 °C 1026.5 hPa South 6.4 km/h 9.3 km/h 58% 0.0 mm CLR
02:30 10.7 °C 2.8 °C 1026.5 hPa South 6.4 km/h 7.4 km/h 58% 0.0 mm CLR
02:35 10.7 °C 2.8 °C 1026.5 hPa SSW 6.4 km/h   58% 0.0 mm CLR
02:40 10.6 °C 2.9 °C 1026.5 hPa SSW 2.9 km/h   59% 0.0 mm CLR
02:45 10.5 °C 2.8 °C 1026.5 hPa SSW 2.9 km/h   59% 0.0 mm CLR
02:50 10.3 °C 2.9 °C 1026.5 hPa Calm     60% 0.0 mm CLR
02:55 10.1 °C 3.2 °C 1026.5 hPa Calm   3.9 km/h 62% 0.0 mm CLR
03:00 9.9 °C 2.9 °C 1026.5 hPa SSW 1.6 km/h 3.2 km/h 62% 0.0 mm CLR
03:05 9.8 °C 3.1 °C 1026.5 hPa SSW 2.3 km/h 3.7 km/h 63% 0.0 mm CLR
03:10 9.8 °C 3.1 °C 1026.5 hPa Calm     63% 0.0 mm CLR
03:15 9.8 °C 3.3 °C 1026.5 hPa Calm   5.6 km/h 64% 0.0 mm CLR
03:20 9.8 °C 3.1 °C 1026.4 hPa SSW 2.9 km/h 3.7 km/h 63% 0.0 mm CLR
03:25 9.9 °C 3.2 °C 1026.4 hPa SSW 2.9 km/h 3.7 km/h 63% 0.0 mm CLR
03:30 9.9 °C 2.9 °C 1026.4 hPa SSW 2.9 km/h 5.6 km/h 62% 0.0 mm CLR
03:35 9.9 °C 2.7 °C 1026.5 hPa South 2.9 km/h 7.4 km/h 61% 0.0 mm CLR
03:40 9.8 °C 2.6 °C 1026.5 hPa SSE 3.9 km/h 7.4 km/h 61% 0.0 mm CLR
03:45 9.7 °C 2.6 °C 1026.5 hPa SSE 3.9 km/h 7.4 km/h 61% 0.0 mm CLR
03:50 9.6 °C 2.4 °C 1026.5 hPa South 5.0 km/h 9.3 km/h 61% 0.0 mm CLR
03:55 9.5 °C 2.3 °C 1026.5 hPa SSW 5.0 km/h 8.7 km/h 61% 0.0 mm CLR
04:00 9.6 °C 2.4 °C 1026.5 hPa SSW 8.0 km/h 9.7 km/h 61% 0.0 mm CLR
04:05 9.6 °C 2.2 °C 1026.5 hPa SSW 6.4 km/h 7.4 km/h 60% 0.0 mm CLR
04:10 9.7 °C 2.3 °C 1026.5 hPa SSW 4.7 km/h 3.7 km/h 60% 0.0 mm CLR
04:15 9.8 °C 2.4 °C 1026.5 hPa SSW 4.7 km/h   60% 0.0 mm CLR
04:20 9.7 °C 2.6 °C 1026.5 hPa Calm   3.7 km/h 61% 0.0 mm CLR
04:25 9.5 °C 2.3 °C 1026.5 hPa Calm   3.7 km/h 61% 0.0 mm CLR
04:30 9.3 °C 2.2 °C 1026.5 hPa SSW 2.3 km/h 7.4 km/h 61% 0.0 mm CLR
04:35 8.8 °C 1.9 °C 1026.7 hPa ESE 2.3 km/h 7.4 km/h 62% 0.0 mm CLR
04:40 8.5 °C 2.1 °C 1026.7 hPa SE 5.0 km/h 9.3 km/h 64% 0.0 mm CLR
04:45 8.3 °C 2.1 °C 1026.7 hPa ESE 5.0 km/h 7.4 km/h 65% 0.0 mm CLR
04:50 8.3 °C 2.1 °C 1026.7 hPa South 5.8 km/h 7.4 km/h 65% 0.0 mm CLR
04:55 8.4 °C 2.0 °C 1026.7 hPa ESE 5.8 km/h 7.4 km/h 64% 0.0 mm CLR
05:00 8.3 °C 1.9 °C 1026.7 hPa SE 4.8 km/h 11.3 km/h 64% 0.0 mm CLR
05:05 8.3 °C 1.9 °C 1026.7 hPa South 5.0 km/h 11.1 km/h 64% 0.0 mm CLR
05:10 8.4 °C 1.8 °C 1026.7 hPa SSE 6.9 km/h 10.0 km/h 63% 0.0 mm CLR
05:15 8.6 °C 1.7 °C 1026.7 hPa South 6.9 km/h 13.0 km/h 62% 0.0 mm CLR
05:20 8.8 °C 1.7 °C 1026.8 hPa SSE 8.4 km/h 11.1 km/h 61% 0.0 mm CLR
05:25 8.9 °C 1.6 °C 1026.8 hPa South 8.4 km/h 13.0 km/h 60% 0.0 mm CLR
05:30 9.0 °C 1.4 °C 1026.8 hPa SSW 8.4 km/h 9.3 km/h 59% 0.0 mm CLR
05:35 9.1 °C 1.5 °C 1027.0 hPa SSW 8.4 km/h 9.3 km/h 59% 0.0 mm CLR
05:40 9.1 °C 1.5 °C 1027.0 hPa SSW 6.9 km/h 9.3 km/h 59% 0.0 mm CLR
05:45 9.1 °C 1.3 °C 1027.0 hPa SSW 6.9 km/h 6.4 km/h 58% 0.0 mm CLR
05:50 9.1 °C 1.3 °C 1027.1 hPa SSW 5.0 km/h 3.9 km/h 58% 0.0 mm CLR
05:55 9.2 °C 1.3 °C 1027.1 hPa SSW 5.0 km/h 3.7 km/h 58% 0.0 mm CLR
06:00 9.2 °C 1.3 °C 1027.1 hPa SSW 3.2 km/h 6.4 km/h 58% 0.0 mm CLR
06:05 9.0 °C 1.2 °C 1027.4 hPa East 3.2 km/h 7.4 km/h 58% 0.0 mm CLR
06:10 8.8 °C 1.2 °C 1027.4 hPa SSW 4.7 km/h 5.6 km/h 59% 0.0 mm CLR
06:15 8.6 °C 1.1 °C 1027.4 hPa ESE 4.7 km/h 7.4 km/h 59% 0.0 mm CLR
06:20 8.5 °C 1.2 °C 1027.6 hPa ESE 4.7 km/h 7.4 km/h 60% 0.0 mm CLR
06:25 8.4 °C 1.1 °C 1027.6 hPa SE 4.7 km/h 7.4 km/h 60% 0.0 mm CLR
06:30 8.3 °C 1.2 °C 1027.6 hPa SE 4.7 km/h 3.7 km/h 61% 0.0 mm CLR
06:35 8.3 °C 1.2 °C 1027.9 hPa South 4.7 km/h 5.6 km/h 61% 0.0 mm CLR
06:40 8.3 °C 1.2 °C 1027.9 hPa NE 3.2 km/h 5.8 km/h 61% 0.0 mm CLR
06:45 8.3 °C 1.2 °C 1027.9 hPa NE 3.2 km/h 9.5 km/h 61% 0.0 mm CLR
06:50 8.2 °C 1.1 °C 1028.0 hPa East 4.7 km/h 5.6 km/h 61% 0.0 mm CLR
06:55 8.1 °C 1.2 °C 1028.0 hPa SSW 4.7 km/h 7.4 km/h 62% 0.0 mm CLR
07:00 8.0 °C 1.2 °C 1028.0 hPa North 3.2 km/h 8.0 km/h 62% 0.0 mm CLR
07:05 7.8 °C 1.2 °C 1028.2 hPa NNE 4.7 km/h 7.4 km/h 63% 0.0 mm CLR
07:10 7.7 °C 1.1 °C 1028.2 hPa NW 4.7 km/h 6.4 km/h 63% 0.0 mm CLR
07:15 7.5 °C 1.1 °C 1028.2 hPa NW 4.7 km/h 7.4 km/h 64% 0.0 mm CLR
07:20 7.3 °C 1.2 °C 1028.4 hPa WNW 3.9 km/h 7.4 km/h 65% 0.0 mm CLR
07:25 7.2 °C 1.5 °C 1028.4 hPa WNW 3.9 km/h 3.7 km/h 67% 0.0 mm CLR
07:30 7.1 °C 1.6 °C 1028.4 hPa WNW 3.2 km/h 7.4 km/h 68% 0.0 mm CLR
07:35 7.1 °C 1.8 °C 1028.4 hPa West 3.2 km/h 7.4 km/h 69% 0.0 mm CLR
07:40 7.1 °C 1.8 °C 1028.4 hPa West 3.9 km/h 2.3 km/h 69% 0.0 mm CLR
07:45 7.1 °C 1.6 °C 1028.4 hPa West 3.9 km/h 3.9 km/h 68% 0.0 mm CLR
07:50 7.2 °C 1.7 °C 1028.5 hPa West 3.2 km/h 3.7 km/h 68% 0.0 mm CLR
07:55 7.3 °C 1.8 °C 1028.5 hPa West 3.2 km/h 5.6 km/h 68% 0.0 mm CLR
08:00 7.3 °C 1.6 °C 1028.5 hPa West 1.6 km/h 8.0 km/h 67% 0.0 mm CLR
08:05 7.5 °C 1.6 °C 1028.7 hPa West 2.3 km/h 4.7 km/h 66% 0.0 mm CLR
08:10 7.7 °C 1.7 °C 1028.7 hPa West 2.9 km/h 5.6 km/h 66% 0.0 mm CLR
08:15 7.8 °C 1.8 °C 1028.7 hPa West 2.9 km/h 3.9 km/h 66% 0.0 mm CLR
08:20 7.9 °C 1.7 °C 1028.9 hPa West 3.2 km/h 3.9 km/h 65% 0.0 mm CLR
08:25 8.1 °C 1.9 °C 1028.9 hPa West 3.2 km/h 4.7 km/h 65% 0.0 mm CLR
08:30 8.2 °C 1.8 °C 1028.9 hPa West 3.2 km/h 3.9 km/h 64% 0.0 mm CLR
08:35 8.3 °C 1.7 °C 1029.1 hPa South 3.2 km/h 5.0 km/h 63% 0.0 mm CLR
08:40 8.3 °C 1.4 °C 1029.1 hPa SSW 3.9 km/h 7.6 km/h 62% 0.0 mm CLR
08:45 8.3 °C 1.4 °C 1029.1 hPa SSW 3.9 km/h 7.4 km/h 62% 0.0 mm CLR
08:50 8.4 °C 1.3 °C 1029.4 hPa SSW 4.7 km/h 8.4 km/h 61% 0.0 mm CLR
08:55 8.5 °C 1.2 °C 1029.4 hPa SSW 4.7 km/h 7.4 km/h 60% 0.0 mm CLR
09:00 8.7 °C 1.3 °C 1029.4 hPa South 4.8 km/h 9.7 km/h 60% 0.0 mm CLR
09:05 8.9 °C 1.3 °C 1029.6 hPa SE 5.0 km/h 11.1 km/h 59% 0.0 mm CLR
09:10 8.8 °C 1.2 °C 1029.6 hPa South 6.9 km/h 9.3 km/h 59% 0.0 mm CLR
09:15 8.7 °C 1.1 °C 1029.6 hPa South 6.9 km/h 11.1 km/h 59% 0.0 mm CLR
09:20 8.8 °C 1.4 °C 1029.9 hPa SSE 6.9 km/h 7.6 km/h 60% 0.0 mm CLR
09:25 8.7 °C 1.3 °C 1029.9 hPa South 6.9 km/h 9.3 km/h 60% 0.0 mm CLR
09:30 8.7 °C 1.3 °C 1029.9 hPa South 6.9 km/h 9.3 km/h 60% 0.0 mm CLR
09:35 8.8 °C 1.4 °C 1030.1 hPa SW 6.9 km/h 9.3 km/h 60% 0.0 mm CLR
09:40 9.1 °C 1.5 °C 1030.1 hPa SE 6.4 km/h 7.4 km/h 59% 0.0 mm CLR
09:45 9.3 °C 1.4 °C 1030.1 hPa SSW 6.4 km/h 7.4 km/h 58% 0.0 mm CLR
09:50 9.6 °C 1.5 °C 1030.2 hPa SSW 5.8 km/h 9.3 km/h 57% 0.0 mm CLR
09:55 9.9 °C 1.5 °C 1030.2 hPa SSW 5.8 km/h 9.3 km/h 56% 0.0 mm CLR
10:00 10.2 °C 1.8 °C 1030.2 hPa SSW 8.0 km/h 9.7 km/h 56% 0.0 mm CLR
10:05 10.5 °C 1.8 °C 1030.3 hPa SSW 6.4 km/h 8.7 km/h 55% 0.0 mm CLR
10:10 10.8 °C 1.8 °C 1030.3 hPa SSW 5.8 km/h 9.3 km/h 54% 0.0 mm CLR
10:15 11.1 °C 1.9 °C 1030.3 hPa SSW 5.8 km/h 7.4 km/h 53% 0.0 mm CLR
10:20 11.4 °C 2.2 °C 1030.5 hPa SSW 5.8 km/h 7.4 km/h 53% 0.0 mm CLR
10:25 11.9 °C 2.3 °C 1030.5 hPa SSW 5.8 km/h 4.7 km/h 52% 0.0 mm CLR
10:30 12.3 °C 2.7 °C 1030.5 hPa SSW 3.9 km/h 7.4 km/h 52% 0.0 mm CLR
10:35 12.7 °C 2.8 °C 1030.5 hPa SSW 3.9 km/h 7.4 km/h 51% 0.0 mm CLR
10:40 13.1 °C 3.4 °C 1030.5 hPa SSW 3.2 km/h 5.6 km/h 52% 0.0 mm CLR
10:45 13.5 °C 4.4 °C 1030.5 hPa SW 3.2 km/h 3.9 km/h 54% 0.0 mm CLR
10:50 13.9 °C 5.0 °C 1030.7 hPa WSW 2.3 km/h 5.6 km/h 55% 0.0 mm CLR
10:55 14.1 °C 5.9 °C 1030.7 hPa WSW 2.3 km/h 5.6 km/h 58% 0.0 mm CLR
11:00 14.2 °C 6.8 °C 1030.7 hPa WSW 3.2 km/h 8.0 km/h 61% 0.0 mm CLR
11:05 14.3 °C 7.3 °C 1030.8 hPa NW 3.2 km/h 5.6 km/h 63% 0.0 mm CLR
11:10 14.5 °C 7.8 °C 1030.8 hPa NW 3.2 km/h   64% 0.0 mm CLR
11:15 14.9 °C 7.9 °C 1030.8 hPa East 3.2 km/h 9.5 km/h 63% 0.0 mm CLR
11:20 15.1 °C 8.1 °C 1030.7 hPa ENE 3.9 km/h 6.9 km/h 63% 0.0 mm CLR
11:25 15.3 °C 8.5 °C 1030.7 hPa NNW 3.9 km/h 13.0 km/h 64% 0.0 mm CLR
11:30 15.2 °C 8.7 °C 1030.7 hPa NE 5.8 km/h 13.0 km/h 65% 0.0 mm CLR
11:35 15.1 °C 8.6 °C 1030.8 hPa East 5.8 km/h 16.7 km/h 65% 0.0 mm CLR
11:40 15.2 °C 8.7 °C 1030.8 hPa NNE 9.5 km/h 11.9 km/h 65% 0.0 mm CLR
11:45 15.3 °C 8.5 °C 1030.8 hPa NE 9.5 km/h 14.8 km/h 64% 0.0 mm CLR
11:50 15.4 °C 8.6 °C 1030.8 hPa ENE 6.9 km/h 11.1 km/h 64% 0.0 mm CLR
11:55 15.7 °C 8.7 °C 1030.8 hPa ENE 6.9 km/h 11.1 km/h 63% 0.0 mm CLR
12:00 15.7 °C 8.7 °C 1030.8 hPa NE 8.0 km/h 14.5 km/h 63% 0.0 mm CLR
12:05 15.8 °C 8.8 °C 1030.7 hPa ESE 7.6 km/h 11.1 km/h 63% 0.0 mm CLR
12:10 16.0 °C 8.9 °C 1030.7 hPa NNE 8.7 km/h 5.6 km/h 63% 0.0 mm CLR
12:15 16.3 °C 8.8 °C 1030.7 hPa ESE 8.7 km/h 13.0 km/h 61% 0.0 mm CLR
12:20 16.4 °C 8.6 °C 1030.7 hPa ENE 6.9 km/h 13.0 km/h 60% 0.0 mm CLR
12:25 16.2 °C 8.7 °C 1030.7 hPa NNE 6.9 km/h 14.8 km/h 61% 0.0 mm CLR
12:30 16.2 °C 8.7 °C 1030.7 hPa ENE 10.3 km/h 17.2 km/h 61% 0.0 mm CLR
12:35 16.3 °C 8.8 °C 1030.8 hPa NE 10.3 km/h 13.0 km/h 61% 0.0 mm CLR
12:40 16.6 °C 8.8 °C 1030.8 hPa East 8.7 km/h 14.8 km/h 60% 0.0 mm CLR
12:45 16.6 °C 8.3 °C 1030.8 hPa NE 8.7 km/h 22.2 km/h 58% 0.0 mm CLR
12:50 16.4 °C 8.6 °C 1030.7 hPa NE 10.3 km/h 13.7 km/h 60% 0.0 mm CLR
12:55 16.7 °C 8.7 °C 1030.7 hPa SE 10.3 km/h 16.7 km/h 59% 0.0 mm CLR
13:00 16.7 °C 8.7 °C 1030.7 hPa ENE 8.0 km/h 19.3 km/h 59% 0.0 mm CLR
13:05 16.7 °C 8.7 °C 1030.6 hPa NE 8.4 km/h 16.7 km/h 59% 0.0 mm CLR
13:10 16.7 °C 8.4 °C 1030.6 hPa ENE 8.7 km/h 7.4 km/h 58% 0.0 mm CLR
13:15 16.9 °C 8.3 °C 1030.6 hPa NE 8.7 km/h 27.8 km/h 57% 0.0 mm CLR
13:20 16.8 °C 8.2 °C 1030.5 hPa East 10.3 km/h 14.8 km/h 57% 0.0 mm CLR
13:25 16.9 °C 7.8 °C 1030.5 hPa East 10.3 km/h 9.5 km/h 55% 0.0 mm CLR
13:30 17.3 °C 7.9 °C 1030.5 hPa NE 9.5 km/h 18.5 km/h 54% 0.0 mm CLR
13:35 17.3 °C 7.6 °C 1030.5 hPa East 9.5 km/h 7.4 km/h 53% 0.0 mm CLR
13:40 17.2 °C 7.6 °C 1030.5 hPa ESE 8.7 km/h 8.7 km/h 53% 0.0 mm CLR
13:45 17.3 °C 7.9 °C 1030.5 hPa NNE 8.7 km/h 9.3 km/h 54% 0.0 mm CLR
13:50 17.4 °C 7.7 °C 1030.3 hPa NE 7.6 km/h 20.9 km/h 53% 0.0 mm CLR
13:55 17.6 °C 7.3 °C 1030.3 hPa ESE 7.6 km/h 16.7 km/h 51% 0.0 mm CLR
14:00 17.5 °C 7.2 °C 1030.3 hPa ENE 11.3 km/h 16.1 km/h 51% 0.0 mm CLR
14:05 17.4 °C 7.4 °C 1030.1 hPa NNE 11.1 km/h 16.7 km/h 52% 0.0 mm CLR
14:10 17.4 °C 7.4 °C 1030.1 hPa ENE 10.3 km/h 11.1 km/h 52% 0.0 mm CLR
14:15 17.4 °C 7.4 °C 1030.1 hPa East 10.3 km/h 14.0 km/h 52% 0.0 mm CLR
14:20 17.6 °C 7.3 °C 1030.0 hPa East 8.7 km/h 18.5 km/h 51% 0.0 mm CLR
14:25 17.7 °C 7.4 °C 1030.0 hPa ENE 8.7 km/h 14.8 km/h 51% 0.0 mm CLR
14:30 17.8 °C 7.5 °C 1030.0 hPa ENE 8.4 km/h 9.3 km/h 51% 0.0 mm CLR
14:35 17.8 °C 7.2 °C 1030.0 hPa NE 8.4 km/h 11.1 km/h 50% 0.0 mm CLR
14:40 17.9 °C 7.3 °C 1030.0 hPa ENE 6.9 km/h 18.5 km/h 50% 0.0 mm CLR
14:45 17.8 °C 6.9 °C 1030.0 hPa NE 6.9 km/h 18.5 km/h 49% 0.0 mm CLR
14:50 17.7 °C 7.2 °C 1029.9 hPa ESE 10.3 km/h 14.8 km/h 50% 0.0 mm CLR
14:55 17.8 °C 7.2 °C 1029.9 hPa ENE 10.3 km/h 16.7 km/h 50% 0.0 mm CLR
15:00 17.8 °C 6.6 °C 1029.9 hPa NE 9.7 km/h 20.9 km/h 48% 0.0 mm CLR
15:05 17.7 °C 6.8 °C 1029.7 hPa NNE 10.0 km/h 18.5 km/h 49% 0.0 mm CLR
15:10 17.7 °C 6.8 °C 1029.7 hPa NE 12.2 km/h 16.1 km/h 49% 0.0 mm CLR
15:15 17.7 °C 6.8 °C 1029.7 hPa NE 12.2 km/h 16.1 km/h 49% 0.0 mm CLR
15:20 17.8 °C 6.9 °C 1029.8 hPa ENE 10.0 km/h 13.0 km/h 49% 0.0 mm CLR
15:25 17.9 °C 6.4 °C 1029.8 hPa NE 10.0 km/h 14.8 km/h 47% 0.0 mm CLR
15:30 17.9 °C 6.1 °C 1029.8 hPa NNE 9.5 km/h 15.6 km/h 46% 0.0 mm CLR
15:35 17.9 °C 6.7 °C 1029.7 hPa East 9.5 km/h 14.8 km/h 48% 0.0 mm CLR
15:40 17.9 °C 7.0 °C 1029.7 hPa SE 10.3 km/h 13.0 km/h 49% 0.0 mm CLR
15:45 18.0 °C 7.1 °C 1029.7 hPa ENE 10.3 km/h 13.0 km/h 49% 0.0 mm CLR
15:50 17.9 °C 6.4 °C 1029.7 hPa ENE 10.0 km/h 13.0 km/h 47% 0.0 mm CLR
15:55 17.8 °C 6.0 °C 1029.7 hPa ESE 10.0 km/h 14.8 km/h 46% 0.0 mm CLR
16:00 17.8 °C 6.1 °C 1029.7 hPa East 9.7 km/h 14.5 km/h 46% 0.0 mm CLR
16:05 18.0 °C 5.9 °C 1029.5 hPa NNE 10.0 km/h 11.1 km/h 45% 0.0 mm CLR
16:10 18.1 °C 5.7 °C 1029.5 hPa NE 8.4 km/h 14.8 km/h 44% 0.0 mm CLR
16:15 18.0 °C 5.6 °C 1029.5 hPa ENE 8.4 km/h 13.7 km/h 44% 0.0 mm CLR
16:20 18.2 °C 5.7 °C 1029.5 hPa ENE 8.7 km/h 14.8 km/h 44% 0.0 mm CLR
16:25 18.2 °C 5.4 °C 1029.5 hPa North 8.7 km/h 18.5 km/h 43% 0.0 mm CLR
16:30 18.2 °C 5.4 °C 1029.5 hPa NE 9.5 km/h 16.7 km/h 43% 0.0 mm CLR
16:35 18.2 °C 4.4 °C 1029.6 hPa ENE 9.5 km/h 18.5 km/h 40% 0.0 mm CLR
16:40 18.3 °C 4.8 °C 1029.6 hPa ENE 10.0 km/h 11.1 km/h 41% 0.0 mm CLR
16:45 18.5 °C 5.0 °C 1029.6 hPa ENE 10.0 km/h 13.0 km/h 41% 0.0 mm CLR
16:50 18.4 °C 3.8 °C 1029.6 hPa ENE 8.7 km/h 22.2 km/h 38% 0.0 mm CLR
16:55 18.2 °C 4.4 °C 1029.6 hPa NNE 8.7 km/h 20.4 km/h 40% 0.0 mm CLR
17:00 18.1 °C 3.6 °C 1029.6 hPa NE 12.9 km/h 20.9 km/h 38% 0.0 mm CLR
17:05 18.2 °C 5.1 °C 1029.6 hPa East 13.7 km/h 20.4 km/h 42% 0.0 mm CLR
17:10 18.2 °C 5.7 °C 1029.6 hPa NE 11.9 km/h 22.2 km/h 44% 0.0 mm CLR
17:15 18.0 °C 6.2 °C 1029.6 hPa NE 11.9 km/h 25.9 km/h 46% 0.0 mm CLR
17:20 17.9 °C 6.4 °C 1029.6 hPa NE 13.7 km/h 20.4 km/h 47% 0.0 mm CLR
17:25 17.8 °C 6.6 °C 1029.6 hPa ENE 13.7 km/h 20.4 km/h 48% 0.0 mm CLR
17:30 17.8 °C 6.9 °C 1029.6 hPa ESE 13.7 km/h 11.1 km/h 49% 0.0 mm CLR
17:35 17.7 °C 7.7 °C 1029.9 hPa ESE 13.7 km/h 13.0 km/h 52% 0.0 mm CLR
17:40 17.6 °C 7.9 °C 1029.9 hPa ESE 10.3 km/h 16.7 km/h 53% 0.0 mm CLR
17:45 17.4 °C 8.0 °C 1029.9 hPa East 10.3 km/h 16.7 km/h 54% 0.0 mm CLR
17:50 17.3 °C 8.4 °C 1029.9 hPa East 10.3 km/h 14.8 km/h 56% 0.0 mm CLR
17:55 17.1 °C 8.5 °C 1029.9 hPa East 10.3 km/h 18.5 km/h 57% 0.0 mm CLR
18:00 16.9 °C 8.8 °C 1029.9 hPa ESE 12.9 km/h 20.9 km/h 59% 0.0 mm CLR
18:05 16.7 °C 8.9 °C 1030.0 hPa East 12.2 km/h 22.2 km/h 60% 0.0 mm CLR
18:10 16.6 °C 9.1 °C 1030.0 hPa ESE 11.1 km/h 22.2 km/h 61% 0.0 mm CLR
18:15 16.3 °C 9.0 °C 1030.0 hPa ESE 11.1 km/h 18.3 km/h 62% 0.0 mm CLR
18:20 16.2 °C 9.2 °C 1030.1 hPa ESE 13.0 km/h 20.4 km/h 63% 0.0 mm CLR
18:25 16.1 °C 9.3 °C 1030.1 hPa SSE 13.0 km/h 13.0 km/h 64% 0.0 mm CLR
18:30 16.1 °C 9.3 °C 1030.1 hPa ESE 9.5 km/h 11.9 km/h 64% 0.0 mm CLR
18:35 15.9 °C 9.1 °C 1030.3 hPa East 9.5 km/h 14.8 km/h 64% 0.0 mm CLR
18:40 15.8 °C 9.2 °C 1030.3 hPa ESE 9.5 km/h 11.1 km/h 65% 0.0 mm CLR
18:45 15.7 °C 9.4 °C 1030.3 hPa ENE 9.5 km/h 14.8 km/h 66% 0.0 mm CLR
18:50 15.4 °C 9.3 °C 1030.4 hPa NE 6.4 km/h 11.1 km/h 67% 0.0 mm CLR
18:55 15.3 °C 9.4 °C 1030.4 hPa NNE 6.4 km/h 7.4 km/h 68% 0.0 mm CLR
19:00 15.1 °C 9.5 °C 1030.4 hPa ENE 4.8 km/h 16.1 km/h 69% 0.0 mm CLR
19:05 14.9 °C 9.5 °C 1030.6 hPa East 5.8 km/h 9.3 km/h 70% 0.0 mm CLR
19:10 14.7 °C 9.5 °C 1030.6 hPa NE 6.4 km/h 9.3 km/h 71% 0.0 mm CLR
19:15 14.6 °C 9.6 °C 1030.6 hPa NE 6.4 km/h 14.8 km/h 72% 0.0 mm CLR
19:20 14.4 °C 9.6 °C 1030.8 hPa NE 6.4 km/h 7.4 km/h 73% 0.0 mm CLR
19:25 14.3 °C 9.5 °C 1030.8 hPa ENE 6.4 km/h 13.0 km/h 73% 0.0 mm CLR
19:30 14.3 °C 9.7 °C 1030.8 hPa NNE 5.8 km/h 9.3 km/h 74% 0.0 mm CLR
19:35 14.2 °C 9.6 °C 1031.0 hPa NNE 5.8 km/h 11.9 km/h 74% 0.0 mm CLR
19:40 14.1 °C 9.7 °C 1031.0 hPa ENE 6.9 km/h 11.1 km/h 75% 0.0 mm CLR
19:45 14.1 °C 9.7 °C 1031.0 hPa NNE 6.9 km/h 11.1 km/h 75% 0.0 mm CLR
19:50 14.0 °C 9.6 °C 1031.1 hPa ENE 6.9 km/h 9.3 km/h 75% 0.0 mm CLR
19:55 13.9 °C 9.6 °C 1031.1 hPa NE 6.9 km/h 9.3 km/h 75% 0.0 mm CLR
20:00 13.9 °C 9.7 °C 1031.1 hPa NE 4.8 km/h 9.7 km/h 76% 0.0 mm CLR
20:05 13.9 °C 9.7 °C 1031.2 hPa NE 5.8 km/h 7.6 km/h 76% 0.0 mm CLR
20:10 13.8 °C 9.7 °C 1031.2 hPa NE 5.8 km/h 8.4 km/h 76% 0.0 mm CLR
20:15 13.7 °C 9.7 °C 1031.2 hPa NE 5.8 km/h 9.3 km/h 77% 0.0 mm CLR
20:20 13.5 °C 9.7 °C 1031.3 hPa NE 6.4 km/h 9.5 km/h 78% 0.0 mm CLR
20:25 13.4 °C 9.8 °C 1031.3 hPa NE 6.4 km/h 9.3 km/h 79% 0.0 mm CLR
20:30 13.3 °C 9.7 °C 1031.3 hPa NE 6.4 km/h 7.4 km/h 79% 0.0 mm CLR
20:35 13.2 °C 9.8 °C 1031.4 hPa NE 6.4 km/h 7.4 km/h 80% 0.0 mm CLR
20:40 13.1 °C 9.7 °C 1031.4 hPa NE 5.8 km/h 7.4 km/h 80% 0.0 mm CLR
20:45 13.0 °C 9.6 °C 1031.4 hPa NE 5.8 km/h 8.7 km/h 80% 0.0 mm CLR
20:50 12.9 °C 9.7 °C 1031.4 hPa ENE 6.4 km/h 7.4 km/h 81% 0.0 mm CLR
20:55 12.8 °C 9.6 °C 1031.4 hPa NE 6.4 km/h 9.3 km/h 81% 0.0 mm CLR
21:00 12.8 °C 9.6 °C 1031.4 hPa NE 8.0 km/h 9.7 km/h 81% 0.0 mm CLR
21:05 12.8 °C 9.6 °C 1031.7 hPa NE 6.4 km/h 7.4 km/h 81% 0.0 mm CLR
21:10 12.8 °C 9.8 °C 1031.7 hPa NE 5.8 km/h 7.4 km/h 82% 0.0 mm CLR
21:15 12.8 °C 9.8 °C 1031.7 hPa NE 5.8 km/h 7.4 km/h 82% 0.0 mm CLR
21:20 12.8 °C 9.8 °C 1031.7 hPa NE 5.0 km/h 7.4 km/h 82% 0.0 mm CLR
21:25 12.9 °C 9.9 °C 1031.7 hPa ENE 5.0 km/h 5.6 km/h 82% 0.0 mm CLR
21:30 12.9 °C 9.7 °C 1031.7 hPa ENE 3.9 km/h 3.7 km/h 81% 0.0 mm CLR
21:35 13.0 °C 9.8 °C 1031.8 hPa ENE 3.9 km/h 5.8 km/h 81% 0.0 mm CLR
21:40 13.0 °C 9.8 °C 1031.8 hPa ENE 3.2 km/h 3.7 km/h 81% 0.0 mm CLR
21:45 13.0 °C 9.6 °C 1031.8 hPa ENE 3.2 km/h 5.0 km/h 80% 0.0 mm CLR
21:50 13.0 °C 9.6 °C 1031.9 hPa ENE 2.9 km/h 3.7 km/h 80% 0.0 mm CLR
21:55 13.0 °C 9.6 °C 1031.9 hPa ENE 2.9 km/h   80% 0.0 mm CLR
22:00 12.9 °C 9.7 °C 1031.9 hPa Calm     81% 0.0 mm CLR
22:05 12.9 °C 9.7 °C 1031.9 hPa Calm     81% 0.0 mm CLR
22:10 12.9 °C 9.7 °C 1031.9 hPa Calm   5.6 km/h 81% 0.0 mm CLR
22:15 12.9 °C 9.7 °C 1031.9 hPa Calm   7.4 km/h 81% 0.0 mm CLR
22:20 12.8 °C 9.6 °C 1031.8 hPa ENE 3.9 km/h 7.4 km/h 81% 0.0 mm CLR
22:25 12.7 °C 9.5 °C 1031.8 hPa ENE 3.9 km/h 5.6 km/h 81% 0.0 mm CLR
22:30 12.6 °C 9.4 °C 1031.8 hPa East 3.9 km/h 4.7 km/h 81% 0.0 mm CLR
22:35 12.4 °C 9.2 °C 1031.9 hPa East 3.9 km/h 7.4 km/h 81% 0.0 mm CLR
22:40 12.3 °C 9.1 °C 1031.9 hPa East 3.9 km/h 5.6 km/h 81% 0.0 mm CLR
22:45 12.2 °C 9.1 °C 1031.9 hPa East 3.9 km/h 5.8 km/h 81% 0.0 mm CLR
22:50 12.1 °C 8.9 °C 1031.9 hPa East 3.2 km/h 6.4 km/h 81% 0.0 mm CLR
22:55 12.1 °C 8.9 °C 1031.9 hPa East 3.2 km/h 6.9 km/h 81% 0.0 mm CLR
23:00 12.1 °C 8.9 °C 1031.9 hPa East 3.2 km/h 8.0 km/h 81% 0.0 mm CLR
23:05 12.0 °C 9.0 °C 1032.0 hPa SE 3.2 km/h 3.9 km/h 82% 0.0 mm CLR
23:10 11.9 °C 8.9 °C 1032.0 hPa SE 3.2 km/h   82% 0.0 mm CLR
23:15 11.9 °C 8.9 °C 1032.0 hPa SE 3.2 km/h 5.6 km/h 82% 0.0 mm CLR
23:20 11.9 °C 8.9 °C 1031.9 hPa SE 2.3 km/h 5.6 km/h 82% 0.0 mm CLR
23:25 11.9 °C 8.9 °C 1031.9 hPa SE 2.3 km/h 5.8 km/h 82% 0.0 mm CLR
23:30 11.9 °C 8.9 °C 1031.9 hPa SE 3.9 km/h 7.4 km/h 82% 0.0 mm CLR
23:35 11.8 °C 8.8 °C 1031.9 hPa SE 3.9 km/h 3.7 km/h 82% 0.0 mm CLR
23:40 11.8 °C 8.8 °C 1031.9 hPa SE 3.2 km/h   82% 0.0 mm CLR
23:45 11.9 °C 8.9 °C 1031.9 hPa SE 3.2 km/h   82% 0.0 mm CLR
23:50 11.9 °C 8.9 °C 1032.0 hPa Calm     82% 0.0 mm CLR
23:55 11.9 °C 8.9 °C 1032.0 hPa Calm   3.7 km/h 82% 0.0 mm CLR
Murcia-Puente Tocinos, España
Compliments of Weather Underground - 2.75 mb

La estación de MeteoMurcia.com, publica sus datos en los siguientes proyectos:

Weather Underground PWS IMURCIAP2 Meteoclimatic www.awekas.at

W3Counter
Web Analytics